Terminal Aerodrome Forecast
Issued by NWS Caribou, ME

Current Version | Previous Version | Text Only | Print | Product List | Glossary On
Versions: 1 2 3 4 5 6 7 8 9 10 11 12 13 14 15 16 17 18 19 20 21
000
FTUS41 KCAR 271141
TAFBGR
TAF
KBGR 271141Z 2712/2812 02025G36KT 1/4SM +SN BLSN VV002
      TEMPO 2715/2719 1/2SM SN BLSN OVC003
     FM271900 03032G42KT 1/2SM SN BLSN OVC003
     FM280000 35023G33KT 1 1/2SM -SN BLSN OVC008=

USA.gov is the U.S. government's official web portal to all federal, state and local government web resources and services.